sensor_id;sensor_type;location;lat;lon;timestamp;pressure;altitude;pressure_sealevel;temperature;humidity
48964;BME280;34776;48.180;16.420;2023-04-20T00:00:59;99913.47;;;8.90;76.09
48964;BME280;34776;48.180;16.420;2023-04-20T00:03:25;99909.97;;;8.89;75.78
48964;BME280;34776;48.180;16.420;2023-04-20T00:05:52;99909.78;;;8.94;75.92
48964;BME280;34776;48.180;16.420;2023-04-20T00:08:17;99908.19;;;8.90;75.95
48964;BME280;34776;48.180;16.420;2023-04-20T00:10:43;99907.31;;;8.89;76.00
48964;BME280;34776;48.180;16.420;2023-04-20T00:13:09;99906.69;;;8.84;76.15
48964;BME280;34776;48.180;16.420;2023-04-20T00:15:35;99903.28;;;8.81;76.28
48964;BME280;34776;48.180;16.420;2023-04-20T00:18:01;99902.50;;;8.79;76.35
48964;BME280;34776;48.180;16.420;2023-04-20T00:20:26;99904.59;;;8.70;76.33
48964;BME280;34776;48.180;16.420;2023-04-20T00:22:52;99902.22;;;8.64;76.36
48964;BME280;34776;48.180;16.420;2023-04-20T00:25:19;99903.50;;;8.54;76.10
48964;BME280;34776;48.180;16.420;2023-04-20T00:27:44;99898.47;;;8.48;76.13
48964;BME280;34776;48.180;16.420;2023-04-20T00:30:11;99900.47;;;8.43;76.04
48964;BME280;34776;48.180;16.420;2023-04-20T00:32:37;99907.59;;;8.41;75.89
48964;BME280;34776;48.180;16.420;2023-04-20T00:35:03;99896.13;;;8.40;76.02
48964;BME280;34776;48.180;16.420;2023-04-20T00:37:28;99889.16;;;8.38;75.87
48964;BME280;34776;48.180;16.420;2023-04-20T00:39:56;99883.06;;;8.36;76.01
48964;BME280;34776;48.180;16.420;2023-04-20T00:42:21;99888.13;;;8.42;76.11
48964;BME280;34776;48.180;16.420;2023-04-20T00:44:47;99884.66;;;8.40;75.94
48964;BME280;34776;48.180;16.420;2023-04-20T00:47:15;99884.91;;;8.33;75.87
48964;BME280;34776;48.180;16.420;2023-04-20T00:49:40;99882.25;;;8.33;75.92
48964;BME280;34776;48.180;16.420;2023-04-20T00:52:06;99880.59;;;8.31;75.88
48964;BME280;34776;48.180;16.420;2023-04-20T00:54:31;99876.34;;;8.27;75.76
48964;BME280;34776;48.180;16.420;2023-04-20T00:56:58;99879.19;;;8.22;75.78
48964;BME280;34776;48.180;16.420;2023-04-20T00:59:23;99873.09;;;8.20;76.04
48964;BME280;34776;48.180;16.420;2023-04-20T01:01:49;99872.19;;;8.21;75.83
48964;BME280;34776;48.180;16.420;2023-04-20T01:04:15;99868.78;;;8.18;75.40
48964;BME280;34776;48.180;16.420;2023-04-20T01:06:40;99867.94;;;8.17;75.72
48964;BME280;34776;48.180;16.420;2023-04-20T01:09:06;99867.81;;;8.20;75.56
48964;BME280;34776;48.180;16.420;2023-04-20T01:11:31;99864.25;;;8.21;75.33
48964;BME280;34776;48.180;16.420;2023-04-20T01:13:56;99863.19;;;8.25;75.37
48964;BME280;34776;48.180;16.420;2023-04-20T01:16:22;99868.59;;;8.22;75.03
48964;BME280;34776;48.180;16.420;2023-04-20T01:18:48;99862.50;;;8.20;75.30
48964;BME280;34776;48.180;16.420;2023-04-20T01:23:48;99869.53;;;8.21;75.41
48964;BME280;34776;48.180;16.420;2023-04-20T01:26:15;99865.97;;;8.22;75.15
48964;BME280;34776;48.180;16.420;2023-04-20T01:28:42;99862.50;;;8.20;75.11
48964;BME280;34776;48.180;16.420;2023-04-20T01:31:08;99869.00;;;8.13;75.33
48964;BME280;34776;48.180;16.420;2023-04-20T01:33:34;99868.28;;;8.08;75.32
48964;BME280;34776;48.180;16.420;2023-04-20T01:36:00;99868.53;;;8.02;75.44
48964;BME280;34776;48.180;16.420;2023-04-20T01:38:26;99865.72;;;8.06;75.42
48964;BME280;34776;48.180;16.420;2023-04-20T01:40:53;99862.16;;;8.07;75.52
48964;BME280;34776;48.180;16.420;2023-04-20T01:43:19;99862.19;;;8.06;75.50
48964;BME280;34776;48.180;16.420;2023-04-20T01:45:45;99860.53;;;8.03;75.44
48964;BME280;34776;48.180;16.420;2023-04-20T01:48:10;99870.53;;;7.97;75.58
48964;BME280;34776;48.180;16.420;2023-04-20T01:50:35;99861.03;;;7.91;75.57
48964;BME280;34776;48.180;16.420;2023-04-20T01:53:01;99860.19;;;7.90;75.63
48964;BME280;34776;48.180;16.420;2023-04-20T01:55:26;99856.78;;;7.87;75.73
48964;BME280;34776;48.180;16.420;2023-04-20T01:57:51;99862.97;;;7.87;75.73
48964;BME280;34776;48.180;16.420;2023-04-20T02:00:17;99858.44;;;7.89;75.84
48964;BME280;34776;48.180;16.420;2023-04-20T02:02:42;99863.50;;;7.96;75.72
48964;BME280;34776;48.180;16.420;2023-04-20T02:05:08;99855.56;;;7.96;75.76
48964;BME280;34776;48.180;16.420;2023-04-20T02:07:33;99862.63;;;7.95;75.69
48964;BME280;34776;48.180;16.420;2023-04-20T02:09:59;99853.84;;;7.95;75.60
48964;BME280;34776;48.180;16.420;2023-04-20T02:12:24;99861.66;;;7.98;75.35
48964;BME280;34776;48.180;16.420;2023-04-20T02:14:49;99855.44;;;7.99;75.45
48964;BME280;34776;48.180;16.420;2023-04-20T02:17:15;99858.09;;;7.99;75.55
48964;BME280;34776;48.180;16.420;2023-04-20T02:19:41;99854.50;;;8.00;75.55
48964;BME280;34776;48.180;16.420;2023-04-20T02:22:06;99850.81;;;8.04;75.44
48964;BME280;34776;48.180;16.420;2023-04-20T02:24:31;99857.03;;;8.03;75.23
48964;BME280;34776;48.180;16.420;2023-04-20T02:26:57;99852.56;;;8.05;75.15
48964;BME280;34776;48.180;16.420;2023-04-20T02:29:23;99850.94;;;8.01;75.12
48964;BME280;34776;48.180;16.420;2023-04-20T02:31:49;99840.47;;;7.98;75.20
48964;BME280;34776;48.180;16.420;2023-04-20T02:34:14;99837.91;;;7.96;75.33
48964;BME280;34776;48.180;16.420;2023-04-20T02:36:40;99830.03;;;7.95;75.37
48964;BME280;34776;48.180;16.420;2023-04-20T02:39:05;99830.13;;;7.91;75.49
48964;BME280;34776;48.180;16.420;2023-04-20T02:41:30;99826.81;;;7.86;75.61
48964;BME280;34776;48.180;16.420;2023-04-20T02:43:56;99828.81;;;7.81;75.81
48964;BME280;34776;48.180;16.420;2023-04-20T02:46:22;99828.69;;;7.84;75.80
48964;BME280;34776;48.180;16.420;2023-04-20T02:48:47;99828.72;;;7.83;75.78
48964;BME280;34776;48.180;16.420;2023-04-20T02:51:12;99832.38;;;7.80;75.83
48964;BME280;34776;48.180;16.420;2023-04-20T02:53:38;99832.38;;;7.80;75.80
48964;BME280;34776;48.180;16.420;2023-04-20T02:56:03;99838.41;;;7.84;75.77
48964;BME280;34776;48.180;16.420;2023-04-20T02:58:28;99834.22;;;7.78;75.76
48964;BME280;34776;48.180;16.420;2023-04-20T03:01:01;99829.22;;;7.70;75.91
48964;BME280;34776;48.180;16.420;2023-04-20T03:03:27;99834.59;;;7.69;76.13
48964;BME280;34776;48.180;16.420;2023-04-20T03:05:53;99830.34;;;7.65;76.28
48964;BME280;34776;48.180;16.420;2023-04-20T03:08:19;99838.38;;;7.62;76.29
48964;BME280;34776;48.180;16.420;2023-04-20T03:10:45;99838.50;;;7.59;76.48
48964;BME280;34776;48.180;16.420;2023-04-20T03:13:10;99838.59;;;7.56;76.49
48964;BME280;34776;48.180;16.420;2023-04-20T03:15:36;99845.72;;;7.53;76.48
48964;BME280;34776;48.180;16.420;2023-04-20T03:18:01;99838.13;;;7.46;76.56
48964;BME280;34776;48.180;16.420;2023-04-20T03:20:27;99846.31;;;7.38;76.85
48964;BME280;34776;48.180;16.420;2023-04-20T03:22:54;99846.56;;;7.32;76.88
48964;BME280;34776;48.180;16.420;2023-04-20T03:25:20;99844.09;;;7.27;77.03
48964;BME280;34776;48.180;16.420;2023-04-20T03:27:45;99844.25;;;7.23;77.35
48964;BME280;34776;48.180;16.420;2023-04-20T03:30:12;99845.28;;;7.19;77.58
48964;BME280;34776;48.180;16.420;2023-04-20T03:32:37;99840.09;;;7.16;77.62
48964;BME280;34776;48.180;16.420;2023-04-20T03:35:06;99840.22;;;7.13;77.81
48964;BME280;34776;48.180;16.420;2023-04-20T03:37:33;99844.72;;;7.10;77.88
48964;BME280;34776;48.180;16.420;2023-04-20T03:39:59;99845.59;;;7.09;77.88
48964;BME280;34776;48.180;16.420;2023-04-20T03:42:24;99847.44;;;7.07;77.92
48964;BME280;34776;48.180;16.420;2023-04-20T03:44:50;99844.88;;;7.06;77.92
48964;BME280;34776;48.180;16.420;2023-04-20T03:47:15;99846.63;;;7.05;78.01
48964;BME280;34776;48.180;16.420;2023-04-20T03:49:40;99845.84;;;7.03;78.06
48964;BME280;34776;48.180;16.420;2023-04-20T03:52:05;99847.66;;;7.01;78.10
48964;BME280;34776;48.180;16.420;2023-04-20T03:54:31;99843.28;;;7.02;78.23
48964;BME280;34776;48.180;16.420;2023-04-20T03:56:56;99848.59;;;7.00;78.31
48964;BME280;34776;48.180;16.420;2023-04-20T03:59:22;99854.81;;;6.99;78.43
48964;BME280;34776;48.180;16.420;2023-04-20T04:01:48;99856.41;;;7.03;78.37
48964;BME280;34776;48.180;16.420;2023-04-20T04:04:13;99853.75;;;7.03;78.40
48964;BME280;34776;48.180;16.420;2023-04-20T04:06:38;99852.91;;;7.03;78.45
48964;BME280;34776;48.180;16.420;2023-04-20T04:09:04;99858.94;;;7.06;78.53
48964;BME280;34776;48.180;16.420;2023-04-20T04:11:29;99854.31;;;7.13;78.58
48964;BME280;34776;48.180;16.420;2023-04-20T04:13:56;99855.75;;;7.22;78.55
48964;BME280;34776;48.180;16.420;2023-04-20T04:16:22;99855.41;;;7.31;78.28
48964;BME280;34776;48.180;16.420;2023-04-20T04:18:47;99845.53;;;7.36;78.02
48964;BME280;34776;48.180;16.420;2023-04-20T04:21:12;99846.09;;;7.44;77.91
48964;BME280;34776;48.180;16.420;2023-04-20T04:23:38;99845.06;;;7.48;77.66
48964;BME280;34776;48.180;16.420;2023-04-20T04:26:03;99847.56;;;7.51;77.76
48964;BME280;34776;48.180;16.420;2023-04-20T04:31:06;99847.84;;;7.67;77.29
48964;BME280;34776;48.180;16.420;2023-04-20T04:33:32;99851.00;;;7.77;77.05
48964;BME280;34776;48.180;16.420;2023-04-20T04:35:58;99857.91;;;7.81;76.85
48964;BME280;34776;48.180;16.420;2023-04-20T04:38:24;99853.53;;;7.80;76.86
48964;BME280;34776;48.180;16.420;2023-04-20T04:40:51;99856.88;;;7.85;76.91
48964;BME280;34776;48.180;16.420;2023-04-20T04:43:17;99858.56;;;7.86;76.62
48964;BME280;34776;48.180;16.420;2023-04-20T04:45:43;99859.38;;;7.88;76.66
48964;BME280;34776;48.180;16.420;2023-04-20T04:48:10;99860.84;;;7.96;76.62
48964;BME280;34776;48.180;16.420;2023-04-20T04:50:39;99860.44;;;8.06;76.47
48964;BME280;34776;48.180;16.420;2023-04-20T04:53:05;99862.91;;;8.11;76.12
48964;BME280;34776;48.180;16.420;2023-04-20T04:55:31;99869.00;;;8.13;76.12
48964;BME280;34776;48.180;16.420;2023-04-20T04:57:56;99863.69;;;8.13;75.94
48964;BME280;34776;48.180;16.420;2023-04-20T05:00:22;99867.06;;;8.17;75.99
48964;BME280;34776;48.180;16.420;2023-04-20T05:02:47;99871.56;;;8.14;76.04
48964;BME280;34776;48.180;16.420;2023-04-20T05:05:13;99875.09;;;8.15;75.90
48964;BME280;34776;48.180;16.420;2023-04-20T05:07:39;99870.50;;;8.19;75.82
48964;BME280;34776;48.180;16.420;2023-04-20T05:10:05;99871.00;;;8.28;75.92
48964;BME280;34776;48.180;16.420;2023-04-20T05:12:31;99875.00;;;8.39;75.56
48964;BME280;34776;48.180;16.420;2023-04-20T05:14:56;99873.59;;;8.52;75.29
48964;BME280;34776;48.180;16.420;2023-04-20T05:17:21;99875.19;;;8.56;74.95
48964;BME280;34776;48.180;16.420;2023-04-20T05:22:22;99876.09;;;8.76;74.43
48964;BME280;34776;48.180;16.420;2023-04-20T05:24:47;99881.16;;;8.82;74.23
48964;BME280;34776;48.180;16.420;2023-04-20T05:29:48;99888.94;;;8.86;74.05
48964;BME280;34776;48.180;16.420;2023-04-20T05:32:13;99889.78;;;8.87;73.83
48964;BME280;34776;48.180;16.420;2023-04-20T05:34:39;99891.47;;;8.88;73.67
48964;BME280;34776;48.180;16.420;2023-04-20T05:37:04;99880.63;;;8.94;73.70
48964;BME280;34776;48.180;16.420;2023-04-20T05:59:55;99891.00;;;9.59;71.52
48964;BME280;34776;48.180;16.420;2023-04-20T06:14:33;99877.75;;;9.78;70.85
48964;BME280;34776;48.180;16.420;2023-04-20T06:19:33;99890.28;;;9.93;70.49
48964;BME280;34776;48.180;16.420;2023-04-20T06:21:59;99879.75;;;9.91;70.52
48964;BME280;34776;48.180;16.420;2023-04-20T06:24:25;99888.34;;;9.96;70.26
48964;BME280;34776;48.180;16.420;2023-04-20T06:26:52;99887.81;;;10.07;70.25
48964;BME280;34776;48.180;16.420;2023-04-20T06:29:18;99888.88;;;10.22;69.64
48964;BME280;34776;48.180;16.420;2023-04-20T06:50:49;99886.72;;;10.84;67.65
48964;BME280;34776;48.180;16.420;2023-04-20T06:58:24;99890.41;;;10.82;67.19
48964;BME280;34776;48.180;16.420;2023-04-20T07:13:46;99892.56;;;11.26;66.12
48964;BME280;34776;48.180;16.420;2023-04-20T07:16:11;99884.53;;;11.43;65.22
48964;BME280;34776;48.180;16.420;2023-04-20T07:18:36;99895.88;;;11.47;65.25
48964;BME280;34776;48.180;16.420;2023-04-20T07:21:02;99894.50;;;11.55;65.42
48964;BME280;34776;48.180;16.420;2023-04-20T07:23:27;99892.88;;;11.69;64.98
48964;BME280;34776;48.180;16.420;2023-04-20T07:25:53;99893.50;;;11.74;64.36
48964;BME280;34776;48.180;16.420;2023-04-20T07:44:16;99904.06;;;12.55;61.81
48964;BME280;34776;48.180;16.420;2023-04-20T07:46:41;99909.31;;;12.56;61.35
48964;BME280;34776;48.180;16.420;2023-04-20T07:49:07;99908.09;;;12.62;61.50
48964;BME280;34776;48.180;16.420;2023-04-20T07:51:32;99902.06;;;12.89;61.31
48964;BME280;34776;48.180;16.420;2023-04-20T07:53:58;99901.00;;;13.22;60.60
48964;BME280;34776;48.180;16.420;2023-04-20T07:56:23;99908.19;;;13.35;59.51
48964;BME280;34776;48.180;16.420;2023-04-20T07:58:49;99908.88;;;13.53;58.79
48964;BME280;34776;48.180;16.420;2023-04-20T08:01:14;99901.78;;;13.81;58.42
48964;BME280;34776;48.180;16.420;2023-04-20T08:03:39;99909.94;;;14.07;58.05
48964;BME280;34776;48.180;16.420;2023-04-20T08:06:05;99909.91;;;14.21;57.25
48964;BME280;34776;48.180;16.420;2023-04-20T08:08:31;99911.44;;;14.25;57.04
48964;BME280;34776;48.180;16.420;2023-04-20T08:13:31;99908.41;;;14.58;56.39
48964;BME280;34776;48.180;16.420;2023-04-20T08:15:57;99906.75;;;14.70;56.00
48964;BME280;34776;48.180;16.420;2023-04-20T08:18:22;99902.13;;;15.38;54.88
48964;BME280;34776;48.180;16.420;2023-04-20T08:20:48;99889.53;;;16.02;53.52
48964;BME280;34776;48.180;16.420;2023-04-20T08:23:15;99892.66;;;15.96;52.94
48964;BME280;34776;48.180;16.420;2023-04-20T08:25:40;99898.34;;;15.53;53.04
48964;BME280;34776;48.180;16.420;2023-04-20T08:28:05;99899.44;;;15.38;53.67
48964;BME280;34776;48.180;16.420;2023-04-20T08:30:31;99892.34;;;15.11;53.36
48964;BME280;34776;48.180;16.420;2023-04-20T08:32:57;99893.94;;;15.01;53.87
48964;BME280;34776;48.180;16.420;2023-04-20T08:35:22;99891.47;;;14.98;53.92
48964;BME280;34776;48.180;16.420;2023-04-20T08:37:47;99888.16;;;15.33;54.16
48964;BME280;34776;48.180;16.420;2023-04-20T08:40:13;99883.72;;;16.57;52.12
48964;BME280;34776;48.180;16.420;2023-04-20T08:42:39;99881.19;;;16.91;50.72
48964;BME280;34776;48.180;16.420;2023-04-20T08:45:05;99887.03;;;16.84;50.68
48964;BME280;34776;48.180;16.420;2023-04-20T08:47:32;99886.84;;;17.10;51.07
48964;BME280;34776;48.180;16.420;2023-04-20T08:49:58;99879.63;;;19.72;47.42
48964;BME280;34776;48.180;16.420;2023-04-20T08:52:24;99877.88;;;22.59;42.22
48964;BME280;34776;48.180;16.420;2023-04-20T08:54:49;99878.03;;;24.81;37.48
48964;BME280;34776;48.180;16.420;2023-04-20T08:57:15;99863.59;;;23.97;38.21
48964;BME280;34776;48.180;16.420;2023-04-20T10:07:57;99849.16;;;18.34;46.25
48964;BME280;34776;48.180;16.420;2023-04-20T10:12:55;99847.09;;;18.91;45.92
48964;BME280;34776;48.180;16.420;2023-04-20T10:15:21;99841.38;;;19.05;45.65
48964;BME280;34776;48.180;16.420;2023-04-20T10:17:48;99850.38;;;18.95;45.63
48964;BME280;34776;48.180;16.420;2023-04-20T10:20:24;99843.28;;;18.94;45.26
48964;BME280;34776;48.180;16.420;2023-04-20T10:22:51;99846.13;;;18.92;46.17
48964;BME280;34776;48.180;16.420;2023-04-20T10:25:23;99830.00;;;19.02;45.86
48964;BME280;34776;48.180;16.420;2023-04-20T10:27:56;99836.44;;;18.90;44.91
48964;BME280;34776;48.180;16.420;2023-04-20T10:30:24;99832.63;;;18.71;46.17
48964;BME280;34776;48.180;16.420;2023-04-20T10:33:01;99830.31;;;18.66;46.18
48964;BME280;34776;48.180;16.420;2023-04-20T10:35:27;99832.34;;;18.74;46.92
48964;BME280;34776;48.180;16.420;2023-04-20T10:37:54;99823.38;;;18.85;46.12
48964;BME280;34776;48.180;16.420;2023-04-20T10:40:25;99821.69;;;19.05;46.04
48964;BME280;34776;48.180;16.420;2023-04-20T10:42:51;99817.41;;;19.23;46.11
48964;BME280;34776;48.180;16.420;2023-04-20T10:45:17;99814.72;;;19.23;45.96
48964;BME280;34776;48.180;16.420;2023-04-20T10:47:44;99819.81;;;19.26;45.45
48964;BME280;34776;48.180;16.420;2023-04-20T10:50:12;99814.53;;;19.15;45.58
48964;BME280;34776;48.180;16.420;2023-04-20T10:52:42;99797.16;;;19.08;45.42
48964;BME280;34776;48.180;16.420;2023-04-20T10:55:19;99809.38;;;18.70;46.09
48964;BME280;34776;48.180;16.420;2023-04-20T10:57:45;99801.19;;;18.72;46.53
48964;BME280;34776;48.180;16.420;2023-04-20T11:02:49;99798.16;;;18.44;46.33
48964;BME280;34776;48.180;16.420;2023-04-20T11:05:16;99797.34;;;18.32;46.72
48964;BME280;34776;48.180;16.420;2023-04-20T11:07:52;99797.97;;;18.24;46.34
48964;BME280;34776;48.180;16.420;2023-04-20T11:10:18;99791.00;;;18.22;47.73
48964;BME280;34776;48.180;16.420;2023-04-20T11:12:44;99793.78;;;18.32;47.35
48964;BME280;34776;48.180;16.420;2023-04-20T11:15:09;99787.75;;;18.39;47.13
48964;BME280;34776;48.180;16.420;2023-04-20T11:17:36;99779.78;;;18.70;47.15
48964;BME280;34776;48.180;16.420;2023-04-20T11:20:12;99780.63;;;18.92;46.57
48964;BME280;34776;48.180;16.420;2023-04-20T11:22:39;99774.44;;;19.32;46.61
48964;BME280;34776;48.180;16.420;2023-04-20T11:25:06;99778.41;;;19.68;45.76
48964;BME280;34776;48.180;16.420;2023-04-20T11:27:33;99774.78;;;19.79;45.23
48964;BME280;34776;48.180;16.420;2023-04-20T11:29:58;99778.72;;;19.75;45.49
48964;BME280;34776;48.180;16.420;2023-04-20T11:32:25;99784.22;;;19.63;45.23
48964;BME280;34776;48.180;16.420;2023-04-20T11:35:17;99783.53;;;19.71;44.73
48964;BME280;34776;48.180;16.420;2023-04-20T11:37:46;99771.94;;;19.90;45.33
48964;BME280;34776;48.180;16.420;2023-04-20T11:40:13;99771.41;;;20.25;45.28
48964;BME280;34776;48.180;16.420;2023-04-20T11:42:39;99779.09;;;20.59;44.38
48964;BME280;34776;48.180;16.420;2023-04-20T11:45:04;99772.53;;;20.81;43.81
48964;BME280;34776;48.180;16.420;2023-04-20T11:47:30;99779.78;;;20.71;43.79
48964;BME280;34776;48.180;16.420;2023-04-20T11:49:56;99777.34;;;20.87;43.63
48964;BME280;34776;48.180;16.420;2023-04-20T11:52:21;99769.75;;;21.01;42.71
48964;BME280;34776;48.180;16.420;2023-04-20T11:54:46;99779.09;;;20.69;43.42
48964;BME280;34776;48.180;16.420;2023-04-20T11:57:12;99772.34;;;20.93;43.47
48964;BME280;34776;48.180;16.420;2023-04-20T11:59:38;99764.97;;;21.32;42.28
48964;BME280;34776;48.180;16.420;2023-04-20T12:02:03;99769.13;;;21.54;41.52
48964;BME280;34776;48.180;16.420;2023-04-20T12:04:29;99760.91;;;21.46;41.46
48964;BME280;34776;48.180;16.420;2023-04-20T12:06:55;99756.16;;;21.30;41.46
48964;BME280;34776;48.180;16.420;2023-04-20T12:09:22;99760.16;;;21.16;41.71
48964;BME280;34776;48.180;16.420;2023-04-20T12:11:48;99760.59;;;20.74;41.85
48964;BME280;34776;48.180;16.420;2023-04-20T12:14:13;99758.34;;;20.60;43.01
48964;BME280;34776;48.180;16.420;2023-04-20T12:16:38;99764.69;;;20.78;42.70
48964;BME280;34776;48.180;16.420;2023-04-20T12:19:04;99761.22;;;21.05;42.11
48964;BME280;34776;48.180;16.420;2023-04-20T12:21:30;99755.22;;;21.39;41.88
48964;BME280;34776;48.180;16.420;2023-04-20T12:23:56;99762.88;;;21.54;40.92
48964;BME280;34776;48.180;16.420;2023-04-20T12:26:22;99760.84;;;21.65;41.06
48964;BME280;34776;48.180;16.420;2023-04-20T12:28:48;99749.88;;;21.85;40.51
48964;BME280;34776;48.180;16.420;2023-04-20T12:31:13;99756.09;;;21.40;41.19
48964;BME280;34776;48.180;16.420;2023-04-20T12:33:38;99753.66;;;21.09;41.46
48964;BME280;34776;48.180;16.420;2023-04-20T12:36:04;99751.56;;;21.03;42.01
48964;BME280;34776;48.180;16.420;2023-04-20T12:38:29;99747.53;;;20.60;42.11
48964;BME280;34776;48.180;16.420;2023-04-20T12:40:55;99748.97;;;20.25;43.09
48964;BME280;34776;48.180;16.420;2023-04-20T12:43:20;99745.84;;;20.10;42.93
48964;BME280;34776;48.180;16.420;2023-04-20T12:45:45;99752.25;;;19.99;43.46
48964;BME280;34776;48.180;16.420;2023-04-20T12:48:12;99753.78;;;20.02;43.19
48964;BME280;34776;48.180;16.420;2023-04-20T12:50:37;99742.72;;;20.24;43.14
48964;BME280;34776;48.180;16.420;2023-04-20T12:53:03;99741.16;;;20.41;42.56
48964;BME280;34776;48.180;16.420;2023-04-20T12:55:28;99741.56;;;20.46;42.32
48964;BME280;34776;48.180;16.420;2023-04-20T12:57:53;99733.56;;;20.84;42.15
48964;BME280;34776;48.180;16.420;2023-04-20T13:00:19;99730.34;;;21.08;41.62
48964;BME280;34776;48.180;16.420;2023-04-20T13:02:45;99727.97;;;21.33;41.14
48964;BME280;34776;48.180;16.420;2023-04-20T13:05:10;99718.09;;;21.51;40.55
48964;BME280;34776;48.180;16.420;2023-04-20T13:07:35;99721.75;;;21.78;40.57
48964;BME280;34776;48.180;16.420;2023-04-20T13:10:01;99723.47;;;21.97;40.23
48964;BME280;34776;48.180;16.420;2023-04-20T13:12:26;99719.88;;;21.96;39.90
48964;BME280;34776;48.180;16.420;2023-04-20T13:14:52;99719.38;;;21.47;40.22
48964;BME280;34776;48.180;16.420;2023-04-20T13:17:17;99715.47;;;21.32;40.66
48964;BME280;34776;48.180;16.420;2023-04-20T13:19:45;99714.31;;;21.34;40.68
48964;BME280;34776;48.180;16.420;2023-04-20T13:22:11;99708.84;;;21.44;40.68
48964;BME280;34776;48.180;16.420;2023-04-20T13:24:36;99712.34;;;21.54;40.58
48964;BME280;34776;48.180;16.420;2023-04-20T13:27:02;99716.25;;;21.87;40.21
48964;BME280;34776;48.180;16.420;2023-04-20T13:29:27;99714.88;;;22.01;40.52
48964;BME280;34776;48.180;16.420;2023-04-20T13:31:52;99712.94;;;22.12;39.82
48964;BME280;34776;48.180;16.420;2023-04-20T13:34:18;99712.63;;;22.15;39.85
48964;BME280;34776;48.180;16.420;2023-04-20T13:36:44;99706.88;;;22.54;39.55
48964;BME280;34776;48.180;16.420;2023-04-20T13:39:11;99707.19;;;22.50;39.24
48964;BME280;34776;48.180;16.420;2023-04-20T13:41:36;99717.25;;;22.04;39.55
48964;BME280;34776;48.180;16.420;2023-04-20T13:44:03;99711.13;;;21.39;40.27
48964;BME280;34776;48.180;16.420;2023-04-20T13:46:29;99706.34;;;21.05;41.15
48964;BME280;34776;48.180;16.420;2023-04-20T13:48:55;99696.13;;;20.99;40.80
48964;BME280;34776;48.180;16.420;2023-04-20T13:51:20;99700.63;;;20.71;41.26
48964;BME280;34776;48.180;16.420;2023-04-20T13:53:46;99703.94;;;20.64;41.43
48964;BME280;34776;48.180;16.420;2023-04-20T13:56:15;99698.94;;;21.07;41.10
48964;BME280;34776;48.180;16.420;2023-04-20T13:58:41;99708.22;;;21.78;40.86
48964;BME280;34776;48.180;16.420;2023-04-20T14:01:10;99697.72;;;22.28;39.49
48964;BME280;34776;48.180;16.420;2023-04-20T14:03:36;99700.03;;;22.41;39.07
48964;BME280;34776;48.180;16.420;2023-04-20T14:06:02;99695.50;;;22.24;38.72
48964;BME280;34776;48.180;16.420;2023-04-20T14:08:28;99694.47;;;21.89;39.12
48964;BME280;34776;48.180;16.420;2023-04-20T14:10:53;99690.72;;;21.54;39.53
48964;BME280;34776;48.180;16.420;2023-04-20T14:13:19;99688.81;;;21.09;40.43
48964;BME280;34776;48.180;16.420;2023-04-20T14:15:44;99689.56;;;20.64;41.00
48964;BME280;34776;48.180;16.420;2023-04-20T14:18:10;99689.44;;;20.56;41.35
48964;BME280;34776;48.180;16.420;2023-04-20T14:20:35;99685.31;;;20.52;41.27
48964;BME280;34776;48.180;16.420;2023-04-20T14:23:01;99680.50;;;20.45;41.59
48964;BME280;34776;48.180;16.420;2023-04-20T14:25:26;99688.16;;;20.40;41.95
48964;BME280;34776;48.180;16.420;2023-04-20T14:27:51;99684.47;;;20.41;41.60
48964;BME280;34776;48.180;16.420;2023-04-20T14:30:17;99682.63;;;20.52;41.88
48964;BME280;34776;48.180;16.420;2023-04-20T14:32:54;99681.31;;;20.56;41.15
48964;BME280;34776;48.180;16.420;2023-04-20T14:35:20;99679.66;;;20.35;41.78
48964;BME280;34776;48.180;16.420;2023-04-20T14:37:45;99676.84;;;20.17;41.99
48964;BME280;34776;48.180;16.420;2023-04-20T14:40:11;99677.28;;;20.13;41.72
48964;BME280;34776;48.180;16.420;2023-04-20T14:42:36;99686.81;;;19.97;41.60
48964;BME280;34776;48.180;16.420;2023-04-20T14:45:02;99681.38;;;19.78;41.89
48964;BME280;34776;48.180;16.420;2023-04-20T16:27:20;99661.84;;;17.91;46.54
48964;BME280;34776;48.180;16.420;2023-04-20T16:29:45;99665.25;;;17.82;47.01
48964;BME280;34776;48.180;16.420;2023-04-20T16:32:11;99659.22;;;17.69;46.86
48964;BME280;34776;48.180;16.420;2023-04-20T16:34:36;99661.56;;;17.62;47.13
48964;BME280;34776;48.180;16.420;2023-04-20T16:37:02;99660.97;;;17.58;47.31
48964;BME280;34776;48.180;16.420;2023-04-20T17:13:20;99676.44;;;16.55;50.44
48964;BME280;34776;48.180;16.420;2023-04-20T17:15:45;99665.31;;;16.48;50.50
48964;BME280;34776;48.180;16.420;2023-04-20T17:18:11;99671.28;;;16.40;50.64
48964;BME280;34776;48.180;16.420;2023-04-20T17:20:36;99674.66;;;16.31;51.04
48964;BME280;34776;48.180;16.420;2023-04-20T17:35:13;99672.81;;;15.85;52.17
48964;BME280;34776;48.180;16.420;2023-04-20T17:50:55;99694.47;;;15.34;53.60
48964;BME280;34776;48.180;16.420;2023-04-20T17:53:20;99690.53;;;15.27;53.69
48964;BME280;34776;48.180;16.420;2023-04-20T17:58:19;99691.63;;;15.11;54.48
48964;BME280;34776;48.180;16.420;2023-04-20T18:00:44;99682.44;;;15.02;54.93
48964;BME280;34776;48.180;16.420;2023-04-20T18:05:46;99698.00;;;14.85;55.32
48964;BME280;34776;48.180;16.420;2023-04-20T18:08:12;99695.00;;;14.76;55.52
48964;BME280;34776;48.180;16.420;2023-04-20T18:10:38;99705.50;;;14.67;55.66
48964;BME280;34776;48.180;16.420;2023-04-20T18:13:04;99711.38;;;14.59;56.14
48964;BME280;34776;48.180;16.420;2023-04-20T18:15:30;99708.34;;;14.51;56.25
48964;BME280;34776;48.180;16.420;2023-04-20T18:20:30;99717.22;;;14.38;56.44
48964;BME280;34776;48.180;16.420;2023-04-20T18:22:56;99718.59;;;14.31;57.10
48964;BME280;34776;48.180;16.420;2023-04-20T18:25:21;99725.31;;;14.24;57.09
48964;BME280;34776;48.180;16.420;2023-04-20T18:27:47;99727.44;;;14.19;57.39
48964;BME280;34776;48.180;16.420;2023-04-20T18:30:13;99737.78;;;14.11;57.50